createdAt,value
2022-11-10T00:01:09.042Z,12.13
2022-11-10T00:03:37.540Z,12.82
2022-11-10T00:06:06.120Z,12.45
2022-11-10T00:08:32.898Z,12.50
2022-11-10T00:11:04.865Z,12.43
2022-11-10T00:13:35.232Z,11.32
2022-11-10T00:16:23.123Z,11.52
2022-11-10T00:18:50.420Z,11.55
2022-11-10T00:21:18.116Z,10.05
2022-11-10T00:23:47.702Z,10.52
2022-11-10T00:26:19.562Z,11.32
2022-11-10T00:28:46.398Z,10.95
2022-11-10T00:31:13.459Z,11.40
2022-11-10T00:33:42.558Z,11.25
2022-11-10T00:36:09.844Z,11.00
2022-11-10T00:38:36.567Z,11.25
2022-11-10T00:41:03.889Z,11.40
2022-11-10T00:43:31.082Z,10.10
2022-11-10T00:45:58.172Z,11.27
2022-11-10T00:48:25.252Z,10.38
2022-11-10T00:50:52.472Z,10.15
2022-11-10T00:53:19.593Z,11.55
2022-11-10T00:55:46.851Z,13.57
2022-11-10T00:58:13.573Z,12.85
2022-11-10T01:00:40.838Z,16.65
2022-11-10T01:03:08.014Z,14.30
2022-11-10T01:05:39.072Z,12.55
2022-11-10T01:08:06.070Z,11.80
2022-11-10T01:10:32.981Z,9.70
2022-11-10T01:12:59.794Z,10.40
2022-11-10T01:15:28.077Z,10.75
2022-11-10T01:17:56.503Z,11.05
2022-11-10T01:20:24.291Z,10.90
2022-11-10T01:22:51.128Z,10.20
2022-11-10T01:25:17.985Z,9.60
2022-11-10T01:27:44.918Z,9.32
2022-11-10T01:30:12.134Z,10.02
2022-11-10T01:32:38.861Z,9.13
2022-11-10T01:35:06.232Z,9.50
2022-11-10T01:37:32.977Z,9.00
2022-11-10T01:39:59.783Z,8.32
2022-11-10T01:42:37.691Z,9.05
2022-11-10T01:45:22.802Z,8.27
2022-11-10T01:47:59.581Z,7.85
2022-11-10T01:50:31.332Z,8.15
2022-11-10T01:53:01.963Z,7.32
2022-11-10T01:55:29.990Z,7.22
2022-11-10T01:57:57.257Z,7.20
2022-11-10T02:00:24.424Z,8.27
2022-11-10T02:03:09.497Z,8.20
2022-11-10T02:05:36.612Z,7.97
2022-11-10T02:08:05.109Z,7.45
2022-11-10T02:10:31.873Z,7.50
2022-11-10T02:12:58.669Z,7.53
2022-11-10T02:15:25.871Z,6.80
2022-11-10T02:17:52.606Z,8.00
2022-11-10T02:20:21.133Z,7.80
2022-11-10T02:22:48.585Z,8.07
2022-11-10T02:25:19.529Z,8.32
2022-11-10T02:27:46.285Z,8.68
2022-11-10T02:30:13.816Z,8.68
2022-11-10T02:32:40.577Z,8.95
2022-11-10T02:35:08.113Z,8.68
2022-11-10T02:37:35.023Z,8.70
2022-11-10T02:40:02.066Z,9.05
2022-11-10T02:42:29.038Z,9.05
2022-11-10T02:44:57.524Z,8.18
2022-11-10T02:47:24.286Z,8.00
2022-11-10T02:49:51.065Z,9.15
2022-11-10T02:52:17.813Z,7.97
2022-11-10T02:54:44.586Z,8.18
2022-11-10T02:57:11.330Z,7.65
2022-11-10T02:59:38.104Z,7.95
2022-11-10T03:02:04.903Z,7.80
2022-11-10T03:04:32.194Z,7.75
2022-11-10T03:06:59.038Z,7.80
2022-11-10T03:09:25.911Z,7.65
2022-11-10T03:11:52.698Z,8.23
2022-11-10T03:14:19.504Z,8.90
2022-11-10T03:16:46.248Z,7.82
2022-11-10T03:19:12.992Z,9.30
2022-11-10T03:21:39.814Z,8.20
2022-11-10T03:24:06.690Z,7.97
2022-11-10T03:26:34.050Z,8.55
2022-11-10T03:29:00.790Z,8.30
2022-11-10T03:31:27.628Z,8.80
2022-11-10T03:33:54.413Z,7.97
2022-11-10T03:36:21.173Z,8.57
2022-11-10T03:38:47.942Z,8.35
2022-11-10T03:41:19.694Z,8.05
2022-11-10T03:43:47.946Z,8.90
2022-11-10T03:46:14.857Z,9.13
2022-11-10T03:48:41.721Z,9.25
2022-11-10T03:51:08.453Z,8.93
2022-11-10T03:53:35.179Z,10.30
2022-11-10T03:56:04.198Z,10.07
2022-11-10T03:58:31.346Z,10.82
2022-11-10T04:00:58.601Z,11.57
2022-11-10T04:03:25.869Z,10.57
2022-11-10T04:06:11.484Z,10.95
2022-11-10T04:08:56.745Z,10.38
2022-11-10T04:11:41.989Z,10.05
2022-11-10T04:14:27.290Z,11.50
2022-11-10T04:16:54.328Z,9.80
2022-11-10T04:19:21.408Z,9.82
2022-11-10T04:21:48.218Z,9.25
2022-11-10T04:24:15.020Z,8.20
2022-11-10T04:26:42.840Z,8.15
2022-11-10T04:29:11.364Z,7.78
2022-11-10T04:31:40.459Z,8.07
2022-11-10T04:34:09.330Z,9.05
2022-11-10T04:36:38.120Z,7.78
2022-11-10T04:39:06.040Z,6.78
2022-11-10T04:41:33.460Z,8.88
2022-11-10T04:44:01.482Z,8.52
2022-11-10T04:46:30.724Z,12.18
2022-11-10T04:48:58.421Z,9.65
2022-11-10T04:51:34.432Z,8.98
2022-11-10T04:54:01.558Z,8.13
2022-11-10T04:56:29.284Z,5.95
2022-11-10T04:58:56.363Z,5.32
2022-11-10T05:01:27.685Z,4.90
2022-11-10T05:03:55.244Z,7.18
2022-11-10T05:06:22.278Z,7.00
2022-11-10T05:08:49.338Z,6.35
2022-11-10T05:11:17.168Z,5.88
2022-11-10T05:13:44.537Z,5.93
2022-11-10T05:16:12.054Z,5.75
2022-11-10T05:18:38.872Z,6.32
2022-11-10T05:21:05.770Z,6.43
2022-11-10T05:23:38.245Z,6.55
2022-11-10T05:26:06.408Z,6.17
2022-11-10T05:28:34.077Z,6.25
2022-11-10T05:31:00.851Z,6.50
2022-11-10T05:33:27.604Z,5.28
2022-11-10T05:35:54.446Z,4.88
2022-11-10T05:38:21.399Z,5.68
2022-11-10T05:40:48.187Z,7.65
2022-11-10T05:43:15.327Z,18.88
2022-11-10T05:45:42.492Z,7.70
2022-11-10T05:48:09.504Z,5.03
2022-11-10T05:50:36.320Z,3.58
2022-11-10T05:53:03.182Z,3.08
2022-11-10T05:55:30.281Z,4.20
2022-11-10T05:57:57.596Z,4.40
2022-11-10T06:00:26.723Z,4.53
2022-11-10T06:03:16.758Z,6.18
2022-11-10T06:05:44.244Z,4.15
2022-11-10T06:08:11.444Z,3.72
2022-11-10T06:10:39.365Z,3.83
2022-11-10T06:13:06.573Z,4.38
2022-11-10T06:15:33.695Z,4.63
2022-11-10T06:18:00.423Z,3.70
2022-11-10T06:20:27.203Z,4.50
2022-11-10T06:23:04.556Z,6.97
2022-11-10T06:25:33.772Z,6.35
2022-11-10T06:28:01.073Z,7.00
2022-11-10T06:30:29.156Z,6.68
2022-11-10T06:32:56.074Z,6.80
2022-11-10T06:35:25.310Z,7.38
2022-11-10T06:38:01.113Z,6.55
2022-11-10T06:40:28.680Z,6.82
2022-11-10T06:42:55.674Z,6.40
2022-11-10T06:45:23.281Z,5.10
2022-11-10T06:47:58.330Z,6.30
2022-11-10T06:50:25.112Z,8.27
2022-11-10T06:52:56.051Z,8.00
2022-11-10T06:55:22.965Z,5.85
2022-11-10T06:57:49.911Z,4.72
2022-11-10T07:00:17.052Z,4.47
2022-11-10T07:02:43.809Z,5.25
2022-11-10T07:05:10.576Z,4.75
2022-11-10T07:07:37.705Z,6.20
2022-11-10T07:10:07.287Z,6.22
2022-11-10T07:12:34.585Z,6.38
2022-11-10T07:15:01.317Z,7.80
2022-11-10T07:17:28.162Z,8.85
2022-11-10T07:19:54.963Z,7.70
2022-11-10T07:22:21.806Z,7.60
2022-11-10T07:24:48.546Z,7.43
2022-11-10T07:27:15.265Z,8.07
2022-11-10T07:29:42.077Z,8.13
2022-11-10T07:32:08.833Z,6.97
2022-11-10T07:34:35.575Z,6.70
2022-11-10T07:37:02.289Z,7.30
2022-11-10T07:39:29.163Z,7.25
2022-11-10T07:41:56.027Z,7.47
2022-11-10T07:44:22.801Z,6.85
2022-11-10T07:46:49.988Z,5.85
2022-11-10T07:49:16.783Z,6.15
2022-11-10T07:51:43.845Z,6.22
2022-11-10T07:54:10.737Z,6.78
2022-11-10T07:56:37.518Z,6.25
2022-11-10T07:59:04.287Z,6.90
2022-11-10T08:01:31.227Z,9.05
2022-11-10T08:03:57.996Z,10.35
2022-11-10T08:06:25.110Z,9.23
2022-11-10T08:08:52.388Z,9.35
2022-11-10T08:11:19.115Z,9.73
2022-11-10T08:13:45.861Z,9.10
2022-11-10T08:16:12.653Z,8.50
2022-11-10T08:18:39.407Z,8.05
2022-11-10T08:21:06.638Z,8.07
2022-11-10T08:23:33.512Z,8.10
2022-11-10T08:26:01.163Z,7.75
2022-11-10T08:28:28.466Z,7.70
2022-11-10T08:30:55.458Z,7.47
2022-11-10T08:33:22.823Z,7.18
2022-11-10T08:35:52.054Z,8.07
2022-11-10T08:38:21.287Z,7.70
2022-11-10T08:40:48.742Z,7.88
2022-11-10T08:43:17.614Z,8.20
2022-11-10T08:45:45.622Z,9.15
2022-11-10T08:48:15.262Z,8.50
2022-11-10T08:50:42.592Z,9.13
2022-11-10T08:53:14.794Z,8.25
2022-11-10T08:55:43.259Z,8.18
2022-11-10T08:58:14.795Z,8.45
2022-11-10T09:00:41.788Z,7.78
2022-11-10T09:03:13.743Z,9.30
2022-11-10T09:05:41.190Z,7.22
2022-11-10T09:08:09.077Z,7.50
2022-11-10T09:10:39.943Z,6.90
2022-11-10T09:13:08.115Z,6.78
2022-11-10T09:15:35.135Z,6.47
2022-11-10T09:18:03.830Z,5.60
2022-11-10T09:20:32.292Z,6.18
2022-11-10T09:23:09.476Z,5.65
2022-11-10T09:25:36.777Z,5.80
2022-11-10T09:28:03.713Z,6.00
2022-11-10T09:30:30.824Z,5.82
2022-11-10T09:33:00.170Z,5.22
2022-11-10T09:35:27.512Z,5.40
2022-11-10T09:37:54.445Z,6.88
2022-11-10T09:40:51.669Z,6.28
2022-11-10T09:43:26.239Z,6.00
2022-11-10T09:45:55.210Z,5.50
2022-11-10T09:48:35.695Z,5.30
2022-11-10T09:51:08.459Z,4.68
2022-11-10T09:53:37.850Z,5.03
2022-11-10T09:56:06.689Z,5.25
2022-11-10T09:58:39.462Z,4.50
2022-11-10T10:01:40.268Z,5.05
2022-11-10T10:04:16.869Z,4.78
2022-11-10T10:07:11.977Z,4.60
2022-11-10T10:09:51.824Z,5.35
2022-11-10T10:12:46.157Z,4.80
2022-11-10T10:15:27.351Z,3.83
2022-11-10T10:18:07.355Z,3.70
2022-11-10T10:20:55.064Z,3.88
2022-11-10T10:24:07.197Z,5.10
2022-11-10T10:26:31.739Z,4.28
2022-11-10T10:29:05.764Z,3.70
2022-11-10T10:31:42.114Z,3.70
2022-11-10T10:34:24.314Z,3.95
2022-11-10T10:36:51.269Z,3.55
2022-11-10T10:39:40.547Z,3.63
2022-11-10T10:42:17.671Z,2.90
2022-11-10T10:45:13.853Z,3.22
2022-11-10T10:47:41.115Z,3.90
2022-11-10T10:50:23.170Z,3.28
2022-11-10T10:53:13.749Z,3.20
2022-11-10T10:56:26.969Z,3.15
2022-11-10T10:58:55.535Z,3.05
2022-11-10T11:01:37.089Z,3.33
2022-11-10T11:04:29.049Z,2.90
2022-11-10T11:07:01.447Z,2.72
2022-11-10T11:09:43.251Z,2.77
2022-11-10T11:12:34.739Z,3.05
2022-11-10T11:15:21.072Z,2.90
2022-11-10T11:17:59.730Z,3.70
2022-11-10T11:20:35.184Z,3.78
2022-11-10T11:23:24.196Z,3.45
2022-11-10T11:25:53.759Z,3.17
2022-11-10T11:28:32.182Z,3.20
2022-11-10T11:31:17.568Z,2.88
2022-11-10T11:34:08.078Z,2.92
2022-11-10T11:36:40.507Z,2.60
2022-11-10T11:39:27.095Z,2.72
2022-11-10T11:42:20.180Z,2.33
2022-11-10T11:44:59.204Z,2.70
2022-11-10T11:47:59.203Z,2.30
2022-11-10T11:50:57.708Z,2.58
2022-11-10T11:53:43.797Z,2.42
2022-11-10T11:56:21.029Z,2.25
2022-11-10T11:59:20.346Z,2.15
2022-11-10T12:02:23.665Z,1.70
2022-11-10T12:05:23.024Z,2.00
2022-11-10T12:08:00.764Z,1.90
2022-11-10T12:10:52.366Z,1.80
2022-11-10T12:13:28.021Z,1.92
2022-11-10T12:15:58.843Z,1.50
2022-11-10T12:18:49.726Z,1.70
2022-11-10T12:21:45.825Z,1.60
2022-11-10T12:24:23.526Z,1.50
2022-11-10T12:27:05.407Z,1.40
2022-11-10T12:29:41.919Z,1.45
2022-11-10T12:32:24.596Z,1.30
2022-11-10T12:35:11.119Z,1.67
2022-11-10T12:37:44.446Z,1.80
2022-11-10T12:40:23.077Z,1.80
2022-11-10T12:43:01.865Z,1.50
2022-11-10T12:45:46.029Z,1.33
2022-11-10T12:48:14.903Z,1.83
2022-11-10T12:50:50.805Z,1.40
2022-11-10T12:53:26.713Z,1.70
2022-11-10T12:56:00.883Z,1.40
2022-11-10T12:58:28.771Z,1.40
2022-11-10T13:01:00.717Z,1.10
2022-11-10T13:03:30.990Z,1.40
2022-11-10T13:06:03.577Z,1.48
2022-11-10T13:08:42.464Z,1.30
2022-11-10T13:11:12.288Z,1.40
2022-11-10T13:13:46.250Z,1.48
2022-11-10T13:16:41.119Z,1.50
2022-11-10T13:19:10.440Z,1.33
2022-11-10T13:22:04.912Z,1.70
2022-11-10T13:24:36.615Z,1.63
2022-11-10T13:27:26.262Z,1.95
2022-11-10T13:29:56.578Z,1.52
2022-11-10T13:32:32.265Z,1.33
2022-11-10T13:35:30.128Z,1.52
2022-11-10T13:37:57.482Z,1.58
2022-11-10T13:40:24.364Z,1.30
2022-11-10T13:42:56.986Z,1.48
2022-11-10T13:45:29.764Z,1.50
2022-11-10T13:48:12.890Z,1.27
2022-11-10T13:50:58.452Z,1.65
2022-11-10T13:53:25.210Z,1.30
2022-11-10T13:56:38.736Z,1.63
2022-11-10T13:59:46.008Z,1.50
2022-11-10T14:02:34.445Z,1.50
2022-11-10T14:05:02.958Z,2.13
2022-11-10T14:07:37.370Z,1.58
2022-11-10T14:10:11.189Z,1.60
2022-11-10T14:12:45.980Z,1.67
2022-11-10T14:15:14.971Z,1.35
2022-11-10T14:17:48.010Z,1.50
2022-11-10T14:20:24.337Z,2.10
2022-11-10T14:22:53.842Z,1.52
2022-11-10T14:25:38.315Z,1.40
2022-11-10T14:28:28.852Z,1.50
2022-11-10T14:30:57.033Z,1.20
2022-11-10T14:33:25.765Z,1.20
2022-11-10T14:35:59.648Z,1.55
2022-11-10T14:38:33.907Z,1.17
2022-11-10T14:41:04.526Z,1.23
2022-11-10T14:43:36.832Z,1.80
2022-11-10T14:46:06.055Z,1.30
2022-11-10T14:48:37.867Z,1.50
2022-11-10T14:51:16.904Z,1.40
2022-11-10T14:53:53.377Z,1.50
2022-11-10T14:56:28.008Z,1.80
2022-11-10T14:58:56.609Z,1.63
2022-11-10T15:01:42.201Z,1.88
2022-11-10T15:04:11.801Z,1.90
2022-11-10T15:06:43.117Z,2.38
2022-11-10T15:09:27.253Z,2.10
2022-11-10T15:12:00.116Z,1.92
2022-11-10T15:14:36.850Z,2.10
2022-11-10T15:17:15.170Z,2.65
2022-11-10T15:19:48.564Z,2.55
2022-11-10T15:24:49.736Z,1.95
2022-11-10T15:27:27.131Z,2.25
2022-11-10T15:29:57.347Z,2.03
2022-11-10T15:32:58.050Z,1.75
2022-11-10T15:35:31.442Z,1.85
2022-11-10T15:38:02.869Z,1.90
2022-11-10T15:40:50.001Z,2.00
2022-11-10T15:43:19.670Z,2.40
2022-11-10T15:45:49.223Z,2.60
2022-11-10T15:48:17.939Z,2.10
2022-11-10T15:50:48.758Z,2.20
2022-11-10T15:53:19.418Z,2.10
2022-11-10T15:55:46.348Z,2.80
2022-11-10T15:58:14.256Z,3.60
2022-11-10T16:00:41.071Z,2.42
2022-11-10T16:03:11.249Z,2.10
2022-11-10T16:05:41.200Z,2.15
2022-11-10T16:08:13.613Z,1.92
2022-11-10T16:10:42.995Z,2.38
2022-11-10T16:13:12.347Z,2.42
2022-11-10T16:15:40.590Z,3.10
2022-11-10T16:18:15.108Z,2.80
2022-11-10T16:20:42.516Z,2.47
2022-11-10T16:23:09.707Z,2.40
2022-11-10T16:25:37.768Z,2.53
2022-11-10T16:28:06.477Z,3.08
2022-11-10T16:30:33.798Z,2.58
2022-11-10T16:33:00.782Z,2.70
2022-11-10T16:35:27.998Z,3.00
2022-11-10T16:37:55.012Z,2.80
2022-11-10T16:40:23.954Z,2.58
2022-11-10T16:42:51.029Z,2.50
2022-11-10T16:45:23.680Z,2.60
2022-11-10T16:47:52.931Z,2.60
2022-11-10T16:50:34.291Z,3.08
2022-11-10T16:53:03.484Z,2.50
2022-11-10T16:55:30.491Z,2.78
2022-11-10T16:57:57.624Z,2.90
2022-11-10T17:00:24.714Z,3.63
2022-11-10T17:03:10.953Z,3.97
2022-11-10T17:05:38.809Z,3.72
2022-11-10T17:08:05.936Z,3.55
2022-11-10T17:10:32.785Z,2.90
2022-11-10T17:12:59.510Z,2.30
2022-11-10T17:15:26.414Z,2.47
2022-11-10T17:17:55.361Z,2.60
2022-11-10T17:20:28.400Z,2.65
2022-11-10T17:22:55.516Z,2.92
2022-11-10T17:25:26.896Z,2.65
2022-11-10T17:27:54.282Z,3.75
2022-11-10T17:30:21.649Z,3.50
2022-11-10T17:33:05.679Z,3.28
2022-11-10T17:35:40.209Z,2.80
2022-11-10T17:38:11.800Z,2.90
2022-11-10T17:40:40.525Z,2.75
2022-11-10T17:43:13.777Z,2.70
2022-11-10T17:45:40.694Z,3.60
2022-11-10T17:48:08.234Z,3.60
2022-11-10T17:50:36.668Z,3.90
2022-11-10T17:53:21.204Z,6.07
2022-11-10T17:55:48.665Z,4.18
2022-11-10T17:58:16.758Z,3.35
2022-11-10T18:00:45.058Z,2.33
2022-11-10T18:03:16.825Z,2.30
2022-11-10T18:05:44.334Z,2.88
2022-11-10T18:08:12.273Z,2.10
2022-11-10T18:10:46.258Z,2.65
2022-11-10T18:13:13.029Z,2.55
2022-11-10T18:15:47.517Z,2.63
2022-11-10T18:18:16.931Z,2.85
2022-11-10T18:20:45.296Z,2.30
2022-11-10T18:23:12.796Z,2.00
2022-11-10T18:25:41.016Z,2.40
2022-11-10T18:28:09.388Z,2.58
2022-11-10T18:30:38.021Z,2.88
2022-11-10T18:33:06.169Z,2.38
2022-11-10T18:35:35.627Z,3.45
2022-11-10T18:38:02.375Z,4.28
2022-11-10T18:40:29.531Z,4.30
2022-11-10T18:43:03.165Z,2.58
2022-11-10T18:45:33.834Z,2.60
2022-11-10T18:48:03.054Z,3.03
2022-11-10T18:50:29.979Z,3.47
2022-11-10T18:52:57.097Z,4.47
2022-11-10T18:55:23.902Z,2.88
2022-11-10T18:57:50.736Z,3.00
2022-11-10T19:00:17.706Z,3.78
2022-11-10T19:02:44.464Z,2.83
2022-11-10T19:05:11.289Z,2.70
2022-11-10T19:07:38.041Z,2.78
2022-11-10T19:10:05.383Z,3.85
2022-11-10T19:12:32.765Z,3.30
2022-11-10T19:14:59.630Z,3.45
2022-11-10T19:17:26.345Z,4.00
2022-11-10T19:19:56.349Z,3.67
2022-11-10T19:22:24.158Z,4.40
2022-11-10T19:25:07.629Z,4.07
2022-11-10T19:27:35.820Z,4.82
2022-11-10T19:30:02.581Z,4.68
2022-11-10T19:32:30.224Z,4.40
2022-11-10T19:34:57.214Z,4.28
2022-11-10T19:37:23.982Z,4.38
2022-11-10T19:39:50.763Z,4.07
2022-11-10T19:42:17.517Z,4.72
2022-11-10T19:44:44.287Z,4.70
2022-11-10T19:47:11.143Z,4.78
2022-11-10T19:49:38.637Z,4.50
2022-11-10T19:52:05.630Z,4.75
2022-11-10T19:54:32.391Z,6.38
2022-11-10T19:56:59.323Z,5.70
2022-11-10T19:59:26.070Z,6.07
2022-11-10T20:01:52.958Z,5.70
2022-11-10T20:04:19.797Z,5.25
2022-11-10T20:06:46.611Z,5.38
2022-11-10T20:09:13.480Z,5.53
2022-11-10T20:11:40.214Z,6.22
2022-11-10T20:14:07.039Z,5.95
2022-11-10T20:16:33.940Z,5.32
2022-11-10T20:19:01.206Z,5.40
2022-11-10T20:21:27.977Z,7.75
2022-11-10T20:23:56.499Z,7.05
2022-11-10T20:26:24.025Z,4.60
2022-11-10T20:28:51.123Z,5.10
2022-11-10T20:31:24.291Z,4.28
2022-11-10T20:33:53.366Z,5.13
2022-11-10T20:36:30.727Z,4.57
2022-11-10T20:39:00.415Z,5.38
2022-11-10T20:41:29.544Z,5.75
2022-11-10T20:43:56.360Z,8.30
2022-11-10T20:46:48.078Z,8.77
2022-11-10T20:49:09.996Z,10.48
2022-11-10T20:51:36.767Z,10.50
2022-11-10T20:54:03.657Z,11.23
2022-11-10T20:56:30.501Z,10.18
2022-11-10T20:58:57.764Z,10.25
2022-11-10T21:01:25.298Z,10.85
2022-11-10T21:03:52.715Z,9.13
2022-11-10T21:06:19.617Z,8.88
2022-11-10T21:08:46.366Z,8.90
2022-11-10T21:11:33.190Z,8.20
2022-11-10T21:14:01.481Z,7.45
2022-11-10T21:16:28.885Z,7.40
2022-11-10T21:18:56.558Z,6.90
2022-11-10T21:21:34.209Z,7.15
2022-11-10T21:24:02.373Z,7.75
2022-11-10T21:26:30.571Z,6.20
2022-11-10T21:28:58.253Z,7.70
2022-11-10T21:31:26.269Z,6.35
2022-11-10T21:33:59.521Z,5.72
2022-11-10T21:36:29.309Z,6.32
2022-11-10T21:38:57.402Z,6.60
2022-11-10T21:41:24.858Z,6.05
2022-11-10T21:43:52.099Z,6.10
2022-11-10T21:46:19.208Z,6.75
2022-11-10T21:48:45.987Z,5.10
2022-11-10T21:51:14.084Z,5.40
2022-11-10T21:53:41.893Z,4.90
2022-11-10T21:56:10.761Z,5.03
2022-11-10T21:58:38.478Z,5.88
2022-11-10T22:01:07.764Z,4.82
2022-11-10T22:03:35.264Z,4.15
2022-11-10T22:06:06.557Z,4.90
2022-11-10T22:08:34.386Z,5.10
2022-11-10T22:11:19.876Z,4.47
2022-11-10T22:14:05.615Z,4.93
2022-11-10T22:16:52.476Z,4.63
2022-11-10T22:19:19.556Z,7.07
2022-11-10T22:21:46.305Z,7.20
2022-11-10T22:24:28.216Z,6.20
2022-11-10T22:26:57.877Z,6.85
2022-11-10T22:29:31.244Z,7.45
2022-11-10T22:32:03.123Z,7.40
2022-11-10T22:34:29.918Z,7.68
2022-11-10T22:36:57.079Z,7.10
2022-11-10T22:39:43.826Z,7.85
2022-11-10T22:42:31.084Z,8.98
2022-11-10T22:44:58.058Z,7.80
2022-11-10T22:47:24.879Z,7.65
2022-11-10T22:49:51.669Z,8.13
2022-11-10T22:52:18.389Z,8.20
2022-11-10T22:54:45.178Z,8.02
2022-11-10T22:57:11.891Z,8.00
2022-11-10T22:59:38.664Z,8.57
2022-11-10T23:02:05.484Z,8.55
2022-11-10T23:04:32.285Z,7.40
2022-11-10T23:06:59.057Z,8.52
2022-11-10T23:09:25.897Z,8.30
2022-11-10T23:11:52.618Z,9.30
2022-11-10T23:14:19.377Z,7.90
2022-11-10T23:16:46.084Z,6.80
2022-11-10T23:19:12.941Z,7.97
2022-11-10T23:21:39.666Z,6.13
2022-11-10T23:24:06.782Z,6.35
2022-11-10T23:26:34.784Z,6.68
2022-11-10T23:29:01.614Z,7.60
2022-11-10T23:31:28.701Z,7.72
2022-11-10T23:33:56.869Z,7.57
2022-11-10T23:36:25.381Z,6.57
2022-11-10T23:38:52.231Z,7.78
2022-11-10T23:41:23.296Z,8.82
2022-11-10T23:43:50.085Z,8.07
2022-11-10T23:46:16.899Z,9.27
2022-11-10T23:48:43.855Z,8.52
2022-11-10T23:51:13.062Z,8.65
2022-11-10T23:53:40.703Z,9.60
2022-11-10T23:56:10.966Z,10.60
2022-11-10T23:58:38.205Z,11.63
